ADDS METAR Data INFO
IDs: Format: Raw Decoded Include TAF

Data at: 2113 UTC 22 Oct 2017

KFXE 222053Z 09015KT 10SM FEW029 SCT035 29/23 A3005 RMK AO2 SLP179 T02890233 56008
KFXE 221953Z 10017KT 10SM SCT027 SCT042 29/23 A3006 RMK AO2 SLP182 T02940233
KFXE 221853Z 11013G21KT 10SM SCT020 SCT034 29/24 A3007 RMK AO2 PK WND 10026/1823 SLP183 T02940239
KFXE 221753Z 11016KT 10SM FEW028 FEW047 30/23 A3008 RMK AO2 SLP188 60000 T03000228 10300 20256 58012
KFXE 221653Z 12013G22KT 10SM SCT027 BKN033 30/24 A3010 RMK AO2 SLP196 T03000239
KFXE 221553Z 11017G22KT 10SM SCT027 30/24 A3011 RMK AO2 SLP199 T03000244
KFXE 221453Z 12015G22KT 10SM SCT030 29/23 A3011 RMK AO2 SLP200 60000 T02940233 51012
KFXE 221353Z 11015G20KT 10SM SCT025 SCT070 28/24 A3011 RMK AO2 SLP198 T02830244
KFXE 221253Z 11012KT 10SM CLR 27/23 A3010 RMK AO2 RAE1154 SLP194 P0000 T02670233
KFXE 221153Z 10010G20KT 6SM RA SCT026 26/23 A3008 RMK AO2 PK WND 09030/1054 RAB1055E08B50 SLP187 P0005 60005 70013 T02560233 10267 20250 51016
KFXE 221053Z 11010KT 10SM SCT026 27/23 A3006 RMK AO2 SLP183 T02670233
KFXE 220953Z 11010G18KT 10SM FEW024 SCT047 27/24 A3005 RMK AO2 SLP176 T02670239
KFXE 220853Z 11012KT 10SM FEW033 27/23 A3003 RMK AO2 SLP172 60000 T02670233 56011
KFXE 220753Z 12009KT 10SM CLR 27/24 A3003 RMK AO2 SLP172 T02670239
KFXE 220653Z 10007KT 10SM FEW028 SCT033 26/24 A3005 RMK AO2 RAE0558 SLP177 P0000 T02610244
KFXE 220553Z AUTO 08008KT 10SM -RA FEW023 SCT050 BKN055 25/24 A3006 RMK AO2 RAB07 SLP182 P0006 60006 T02500239 10278 20250 56012
KFXE 220453Z 10011G21KT 10SM SCT022 SCT037 27/24 A3008 RMK AO2 SLP186 T02720239 403000250
KFXE 220353Z 10011KT 10SM FEW023 SCT029 28/24 A3009 RMK AO2 SLP190 T02780239
KFXE 220253Z COR 10013KT 10SM SCT015 28/23 A3010 RMK AO2 SLP195 T02780233 53013
KFXE 220153Z 08017G22KT 10SM FEW025 SCT035 27/24 A3008 RMK AO2 SLP190 T02720239
KFXE 220053Z 08014KT 10SM FEW022 FEW030 SCT038 27/24 A3007 RMK AO2 SLP184 T02720239
KFXE 212353Z 08013KT 10SM SCT020 27/24 A3006 RMK AO2 SLP182 60002 T02720244 10294 20261 51008
KFXE 212253Z 06012G19KT 10SM SCT022 SCT032 27/23 A3005 RMK AO2 SLP179 T02720233
KFXE 212153Z 06012G22KT 10SM FEW023 SCT036 SCT043 27/24 A3005 RMK AO2 SLP176 T02720239
KFXE 212053Z 07015G20KT 10SM SCT030 SCT040 27/24 A3004 RMK AO2 PK WND 07027/2014 RAB16E30 SLP173 P0002 60002 T02720244 56008
KFXE 211953Z 07015KT 10SM SCT037 29/23 A3004 RMK AO2 SLP173 T02890233
KFXE 211923Z 07017G22KT 10SM SCT027 28/23 A3004 RMK AO2 T02830233
KFXE 211853Z COR 06016G26KT 10SM FEW027 SCT034 BKN050 29/23 A3005 RMK AO2 PK WND 09026/1758 SLP176 T02890233
KFXE 211753Z 07018G26KT 10SM SCT027 SCT033 SCT049 29/23 A3006 RMK AO2 PK WND 06026/1751 RAB19E35 SLP182 P0000 60000 T02890233 10300 20267 58006
KFXE 211653Z 06018G24KT 10SM SCT025 BKN036 BKN043 29/23 A3008 RMK AO2 SLP190 T02940233
KFXE 211553Z 06016G24KT 10SM SCT026 SCT041 SCT048 28/23 A3009 RMK AO2 PK WND 07028/1500 SLP192 T02830228
KFXE 211453Z 08018G25KT 10SM FEW023 FEW029 BKN060 28/23 A3008 RMK AO2 SLP188 T02830233 51017
KFXE 211353Z 07016G21KT 10SM FEW029 BKN060 28/23 A3008 RMK AO2 SLP187 T02780228
KFXE 211253Z 07019G24KT 10SM CLR 28/22 A3005 RMK AO2 PK WND 08027/1225 SLP177 T02780222
KFXE 211153Z 07014G22KT 10SM SCT026 27/22 A3003 RMK AO2 SLP172 70003 T02670222 10267 20261 53013
KFXE 211053Z 07012G20KT 10SM FEW026 SCT037 BKN049 27/23 A3002 RMK AO2 SLP167 T02670228
KFXE 210953Z 06012G21KT 10SM FEW022 FEW030 27/23 A3000 RMK AO2 SLP162 T02670228